Time;durP1;ratioP1;P1;durP2;ratioP2;P2;SDS_P1;SDS_P2;PMS_P1;PMS_P2;Temp;Humidity;BMP_temperature;BMP_pressure;BME280_temperature;BME280_humidity;BME280_pressure;Samples;Min_cycle;Max_cycle;Signal;HPM_P1;HPM_P2
2021/07/24 00:01:51;;;;;;;11.98;6.63;;;;;;;14.59;100.00;100596.13;5143396;28;20110;-77
2021/07/24 00:04:21;;;;;;;11.13;6.37;;;;;;;14.57;100.00;100595.34;5144894;28;20540;-77
2021/07/24 00:06:52;;;;;;;8.18;6.10;;;;;;;14.69;100.00;100594.69;5144213;28;20633;-77
2021/07/24 00:09:22;;;;;;;7.93;5.95;;;;;;;14.72;100.00;100599.78;5151914;28;20105;-77
2021/07/24 00:11:53;;;;;;;9.00;5.90;;;;;;;14.72;100.00;100594.53;5145333;28;20539;-77
2021/07/24 00:14:23;;;;;;;9.35;6.05;;;;;;;14.50;100.00;100591.31;5144809;28;20046;-77
2021/07/24 00:16:54;;;;;;;10.00;6.60;;;;;;;14.54;100.00;100592.84;5144908;28;20081;-77
2021/07/24 00:19:24;;;;;;;9.07;6.10;;;;;;;14.55;100.00;100591.91;5144295;28;20042;-77
2021/07/24 00:21:54;;;;;;;8.07;5.88;;;;;;;14.62;100.00;100586.25;5143073;28;20284;-77
2021/07/24 00:24:25;;;;;;;9.02;6.00;;;;;;;14.46;100.00;100584.50;5146247;28;20085;-77
2021/07/24 00:26:55;;;;;;;8.25;5.93;;;;;;;14.30;100.00;100588.84;5148070;28;20523;-78
2021/07/24 00:29:25;;;;;;;8.18;5.80;;;;;;;14.23;100.00;100588.28;5144425;28;20378;-77
2021/07/24 00:31:56;;;;;;;10.68;5.55;;;;;;;14.15;100.00;100584.31;5142811;28;20033;-78
2021/07/24 00:34:26;;;;;;;8.98;5.20;;;;;;;14.18;100.00;100587.69;5144289;28;20026;-77
2021/07/24 00:36:57;;;;;;;6.93;5.07;;;;;;;14.03;100.00;100579.66;5144188;28;20018;-77
2021/07/24 00:39:28;;;;;;;12.60;5.60;;;;;;;13.83;100.00;100577.16;5151192;28;20365;-77
2021/07/24 00:42:14;;;;;;;7.13;5.43;;;;;;;13.98;100.00;100581.69;5149047;28;20113;-78
2021/07/24 00:44:59;;;;;;;;;;;;;;;14.12;100.00;100574.78;5140115;28;20102;-78
2021/07/24 00:47:43;;;;;;;7.70;5.00;;;;;;;14.33;98.46;100579.03;5132967;28;20013;-78
2021/07/24 00:50:15;;;;;;;12.52;5.07;;;;;;;14.42;97.81;100578.56;5143856;28;20101;-78
2021/07/24 00:52:45;;;;;;;7.47;5.20;;;;;;;14.36;99.07;100578.00;5143516;28;20030;-77
2021/07/24 00:55:16;;;;;;;7.50;4.90;;;;;;;14.49;98.13;100573.81;5153220;28;20030;-78
2021/07/24 00:57:48;;;;;;;7.13;4.72;;;;;;;14.38;97.81;100578.78;5143957;28;20030;-77
2021/07/24 01:00:18;;;;;;;7.20;5.05;;;;;;;14.18;99.82;100584.19;5143351;28;20026;-77
2021/07/24 01:02:48;;;;;;;9.57;5.32;;;;;;;14.14;100.00;100580.00;5143371;28;20026;-77
2021/07/24 01:05:19;;;;;;;9.77;5.47;;;;;;;14.04;100.00;100570.84;5143594;28;20556;-78
2021/07/24 01:07:49;;;;;;;12.57;5.53;;;;;;;13.58;100.00;100576.66;5142221;28;20649;-77
2021/07/24 01:10:19;;;;;;;8.50;5.85;;;;;;;13.58;100.00;100574.88;5153293;28;20493;-78
2021/07/24 01:12:50;;;;;;;10.25;5.13;;;;;;;14.00;100.00;100564.91;5141855;28;20050;-77
2021/07/24 01:15:20;;;;;;;6.32;4.53;;;;;;;14.14;98.77;100567.72;5143558;28;20546;-78
2021/07/24 01:17:51;;;;;;;8.27;4.80;;;;;;;14.39;97.92;100559.47;5142196;28;20482;-78
2021/07/24 01:20:22;;;;;;;10.25;5.13;;;;;;;14.27;97.46;100557.47;5146649;28;20026;-78
2021/07/24 01:22:53;;;;;;;7.75;5.10;;;;;;;14.02;99.90;100546.44;5143265;28;20034;-78
2021/07/24 01:25:23;;;;;;;6.70;4.63;;;;;;;14.05;100.00;100554.19;5152649;28;20030;-78
2021/07/24 01:27:54;;;;;;;6.40;4.80;;;;;;;13.96;100.00;100557.25;5144593;28;20100;-78
2021/07/24 01:30:24;;;;;;;5.82;4.70;;;;;;;14.11;99.49;100556.50;5143475;28;20093;-78
2021/07/24 01:32:54;;;;;;;7.97;4.60;;;;;;;14.01;98.61;100555.25;5141657;28;20031;-78
2021/07/24 01:35:24;;;;;;;6.57;4.07;;;;;;;14.15;98.34;100544.88;5143467;28;20031;-78
2021/07/24 01:37:55;;;;;;;6.68;4.13;;;;;;;13.77;100.00;100551.22;5142795;28;20413;-78
2021/07/24 01:40:25;;;;;;;7.57;4.35;;;;;;;13.73;100.00;100555.75;5149120;28;20029;-78
2021/07/24 01:42:57;;;;;;;6.68;4.15;;;;;;;13.91;98.36;100556.63;5143340;28;20019;-77
2021/07/24 01:45:28;;;;;;;7.28;4.45;;;;;;;13.68;100.00;100549.88;5143057;28;20102;-78
2021/07/24 01:47:58;;;;;;;10.10;4.60;;;;;;;13.56;100.00;100544.38;5142220;28;20149;-78
2021/07/24 01:53:18;;;;;;;4.82;3.90;;;;;;;13.78;98.63;100545.03;5142542;28;20488;-78
2021/07/24 01:55:56;;;;;;;7.75;4.80;;;;;;;13.50;100.00;100537.63;5150951;28;20347;-78
2021/07/24 01:58:35;;;;;;;8.38;4.70;;;;;;;13.67;99.59;100531.56;5143229;28;20525;-78
2021/07/24 02:01:06;;;;;;;5.72;4.20;;;;;;;13.83;99.73;100535.13;5143685;28;20393;-78
2021/07/24 02:03:38;;;;;;;6.55;4.47;;;;;;;13.53;100.00;100537.47;5145464;28;20029;-78
2021/07/24 02:06:14;;;;;;;6.95;4.40;;;;;;;13.70;100.00;100531.41;5148113;28;20298;-78
2021/07/24 02:08:49;;;;;;;7.07;4.68;;;;;;;13.63;100.00;100528.25;5148435;28;20045;-77
2021/07/24 02:11:21;;;;;;;7.17;4.53;;;;;;;13.68;100.00;100520.13;5148213;28;20035;-78
2021/07/24 02:13:51;;;;;;;7.57;4.72;;;;;;;13.61;100.00;100513.47;5147159;28;20026;-78
2021/07/24 02:16:22;;;;;;;6.57;4.95;;;;;;;13.32;100.00;100524.53;5148646;28;20038;-78
2021/07/24 02:18:55;;;;;;;8.50;5.07;;;;;;;13.17;100.00;100518.22;5148200;28;20027;-79
2021/07/24 02:21:26;;;;;;;6.75;5.15;;;;;;;13.10;100.00;100511.56;5148843;28;20384;-76
2021/07/24 02:23:57;;;;;;;9.35;5.35;;;;;;;13.32;100.00;100514.03;5152839;28;20046;-79
2021/07/24 02:26:27;;;;;;;9.00;5.28;;;;;;;13.06;100.00;100506.53;5153249;28;20481;-76
2021/07/24 02:28:57;;;;;;;9.05;5.53;;;;;;;13.33;100.00;100497.34;5146295;28;20089;-76
2021/07/24 02:31:28;;;;;;;9.10;4.57;;;;;;;13.64;100.00;100501.06;5147894;28;20062;-77
2021/07/24 02:33:59;;;;;;;6.40;4.40;;;;;;;13.45;100.00;100492.38;5148144;28;20885;-77
2021/07/24 02:36:29;;;;;;;7.25;5.03;;;;;;;13.05;100.00;100484.69;5146697;28;20336;-78
2021/07/24 02:39:00;;;;;;;8.35;5.13;;;;;;;13.08;100.00;100478.47;5155568;28;20436;-77
2021/07/24 02:41:30;;;;;;;6.35;4.35;;;;;;;13.00;100.00;100478.81;5155668;28;20501;-77
2021/07/24 02:44:00;;;;;;;6.60;4.25;;;;;;;13.27;100.00;100480.13;5148831;28;20412;-78
2021/07/24 02:46:30;;;;;;;5.72;4.15;;;;;;;13.20;100.00;100470.00;5150603;28;20477;-78
2021/07/24 02:49:01;;;;;;;7.25;4.45;;;;;;;13.09;100.00;100459.16;5150207;28;20030;-77
2021/07/24 02:51:32;;;;;;;7.28;4.72;;;;;;;13.11;100.00;100467.81;5148362;28;20034;-78
2021/07/24 02:54:02;;;;;;;7.47;3.90;;;;;;;13.37;100.00;100464.81;5155952;28;20027;-79
2021/07/24 02:56:32;;;;;;;6.28;3.60;;;;;;;13.60;99.08;100459.25;5153520;28;20022;-77
2021/07/24 02:59:03;;;;;;;5.90;4.00;;;;;;;13.58;97.24;100471.63;5151063;28;20158;-78
2021/07/24 03:01:33;;;;;;;8.05;4.13;;;;;;;13.34;100.00;100472.78;5150337;28;20488;-78
2021/07/24 03:04:03;;;;;;;5.87;3.83;;;;;;;13.28;100.00;100476.59;5148885;28;20027;-77
2021/07/24 03:06:34;;;;;;;5.50;3.80;;;;;;;13.40;99.47;100473.34;5149637;28;20365;-79
2021/07/24 03:09:06;;;;;;;7.33;3.83;;;;;;;13.39;97.46;100474.28;5154278;28;20109;-79
2021/07/24 03:11:37;;;;;;;7.70;4.43;;;;;;;13.03;100.00;100477.84;5150228;28;20310;-77
2021/07/24 03:14:08;;;;;;;6.60;4.47;;;;;;;12.87;100.00;100474.19;5146569;28;20065;-78
2021/07/24 03:16:38;;;;;;;6.82;4.40;;;;;;;13.11;100.00;100478.31;5148024;28;20101;-76
2021/07/24 03:19:08;;;;;;;8.47;4.33;;;;;;;13.15;100.00;100482.47;5148213;28;20630;-79
2021/07/24 03:21:39;;;;;;;5.65;4.38;;;;;;;13.32;100.00;100477.28;5147245;28;20661;-78
2021/07/24 03:24:09;;;;;;;6.75;4.60;;;;;;;13.37;99.59;100484.00;5154704;28;20089;-78
2021/07/24 03:26:40;;;;;;;6.20;4.22;;;;;;;13.00;100.00;100481.44;5150938;28;20032;-76
2021/07/24 03:29:10;;;;;;;8.18;4.25;;;;;;;13.00;100.00;100477.94;5145534;28;20022;-79
2021/07/24 03:31:41;;;;;;;7.07;5.00;;;;;;;12.97;100.00;100472.84;5145348;28;20030;-79
2021/07/24 03:34:11;;;;;;;8.55;4.90;;;;;;;13.12;100.00;100480.00;5146149;28;20062;-79
2021/07/24 03:36:41;;;;;;;7.50;4.70;;;;;;;13.22;100.00;100468.16;5145828;28;20307;-77
2021/07/24 03:39:11;;;;;;;5.50;4.22;;;;;;;13.12;100.00;100485.25;5153942;28;20273;-79
2021/07/24 03:41:42;;;;;;;6.20;4.20;;;;;;;13.00;100.00;100480.56;5149321;28;20101;-78
2021/07/24 03:44:12;;;;;;;5.88;3.55;;;;;;;13.14;100.00;100492.16;5147150;28;20034;-79
2021/07/24 03:46:42;;;;;;;4.60;3.20;;;;;;;12.76;100.00;100484.31;5146808;28;20644;-79
2021/07/24 03:49:12;;;;;;;4.00;3.40;;;;;;;13.04;100.00;100492.66;5146897;28;20121;-79
2021/07/24 03:51:43;;;;;;;7.72;3.90;;;;;;;12.90;100.00;100487.16;5146224;28;20480;-79
2021/07/24 03:54:13;;;;;;;5.30;3.80;;;;;;;12.90;100.00;100482.75;5152528;28;20053;-79
2021/07/24 03:56:43;;;;;;;4.07;3.28;;;;;;;13.09;100.00;100482.78;5149461;28;20027;-79
2021/07/24 03:59:14;;;;;;;5.30;3.20;;;;;;;12.94;100.00;100488.75;5146918;28;20102;-79
2021/07/24 04:01:44;;;;;;;5.70;3.05;;;;;;;13.22;100.00;100489.16;5145500;28;20026;-79
2021/07/24 04:04:16;;;;;;;6.55;3.20;;;;;;;13.64;99.87;100502.81;5145810;28;20031;-77
2021/07/24 04:06:47;;;;;;;5.13;3.25;;;;;;;13.41;100.00;100500.47;5146259;28;20090;-77
2021/07/24 04:09:17;;;;;;;7.28;3.60;;;;;;;13.48;99.31;100497.47;5151168;28;20022;-79
2021/07/24 04:11:48;;;;;;;6.53;3.92;;;;;;;13.10;100.00;100495.81;5155524;28;20370;-79
2021/07/24 04:14:19;;;;;;;5.50;4.10;;;;;;;13.28;100.00;100499.34;5144826;28;20030;-78
2021/07/24 04:16:49;;;;;;;5.88;3.97;;;;;;;13.36;100.00;100495.44;5149245;28;20049;-76
2021/07/24 04:19:19;;;;;;;5.22;4.00;;;;;;;13.54;100.00;100493.72;5145412;28;20034;-79
2021/07/24 04:21:49;;;;;;;8.13;4.88;;;;;;;13.15;100.00;100485.09;5146808;28;20026;-76
2021/07/24 04:24:20;;;;;;;9.25;5.00;;;;;;;13.07;100.00;100492.50;5154037;28;20030;-78
2021/07/24 04:26:50;;;;;;;6.90;4.60;;;;;;;13.02;100.00;100494.47;5150766;28;20287;-77
2021/07/24 04:29:23;;;;;;;7.00;4.50;;;;;;;13.41;100.00;100497.84;5151638;28;20285;-79
2021/07/24 04:31:55;;;;;;;7.05;4.45;;;;;;;13.41;100.00;100508.34;5145798;28;20361;-79
2021/07/24 04:34:28;;;;;;;11.38;4.10;;;;;;;13.74;100.00;100511.97;5146022;28;20114;-76
2021/07/24 04:36:59;;;;;;;9.07;4.18;;;;;;;14.22;99.76;100509.53;5145127;28;20031;-80
2021/07/24 04:39:30;;;;;;;7.60;3.80;;;;;;;14.30;100.00;100500.31;5151192;28;20503;-79
2021/07/24 04:42:01;;;;;;;5.97;3.75;;;;;;;14.54;98.27;100498.16;5148182;28;20023;-79
2021/07/24 04:44:31;;;;;;;6.45;3.80;;;;;;;15.62;94.71;100492.97;5145328;28;20412;-79
2021/07/24 04:47:01;;;;;;;7.97;3.80;;;;;;;16.32;91.89;100494.03;5144756;28;20027;-78
2021/07/24 04:49:32;;;;;;;6.18;3.38;;;;;;;18.48;82.93;100479.84;5145587;28;20056;-77
2021/07/24 04:52:03;;;;;;;7.78;3.20;;;;;;;18.79;80.30;100483.72;5145119;28;20027;-80
2021/07/24 04:54:33;;;;;;;6.75;3.10;;;;;;;19.45;76.69;100478.91;5151399;28;20030;-80
2021/07/24 04:57:04;;;;;;;5.82;3.30;;;;;;;20.31;72.64;100473.22;5150302;28;20069;-79
2021/07/24 04:59:36;;;;;;;7.50;3.53;;;;;;;19.92;73.75;100473.56;5144419;28;20073;-76
2021/07/24 05:02:07;;;;;;;7.57;2.90;;;;;;;21.06;73.13;100470.72;5144632;28;20022;-79
2021/07/24 05:04:37;;;;;;;6.37;3.67;;;;;;;20.83;70.77;100460.19;5145919;28;20779;-80
2021/07/24 05:07:07;;;;;;;8.30;3.80;;;;;;;20.55;73.66;100463.34;5145612;28;20289;-79
2021/07/24 05:09:39;;;;;;;6.00;2.92;;;;;;;21.77;71.21;100459.56;5152412;28;20053;-77
2021/07/24 05:12:09;;;;;;;7.55;3.47;;;;;;;21.40;68.75;100468.84;5147873;28;20633;-79
2021/07/24 05:14:40;;;;;;;6.10;3.15;;;;;;;21.68;70.88;100465.63;5145461;28;20136;-79
2021/07/24 05:17:13;;;;;;;5.25;3.50;;;;;;;21.13;70.26;100463.09;5146125;28;20046;-77
2021/07/24 05:19:45;;;;;;;5.82;3.05;;;;;;;23.55;66.90;100463.25;5141115;28;20089;-80
2021/07/24 05:22:15;;;;;;;5.68;3.25;;;;;;;22.87;66.09;100457.84;5145304;28;20034;-79
2021/07/24 05:24:46;;;;;;;5.20;3.35;;;;;;;22.54;67.04;100462.63;5151333;28;20502;-80
2021/07/24 05:27:16;;;;;;;7.18;3.10;;;;;;;23.34;66.08;100459.84;5149473;28;20026;-80
2021/07/24 05:29:46;;;;;;;8.00;3.83;;;;;;;24.23;62.83;100456.94;5145018;28;20081;-80
2021/07/24 05:32:17;;;;;;;5.28;3.28;;;;;;;26.72;59.44;100443.44;5145199;28;20031;-80
2021/07/24 05:34:47;;;;;;;6.53;3.60;;;;;;;26.08;59.48;100451.88;5146313;28;20050;-79
2021/07/24 05:37:17;;;;;;;8.37;3.47;;;;;;;24.84;62.72;100454.50;5144507;28;20031;-77
2021/07/24 05:39:47;;;;;;;4.83;3.40;;;;;;;25.31;61.23;100447.25;5150942;28;20118;-77
2021/07/24 05:42:18;;;;;;;6.67;3.70;;;;;;;24.99;60.30;100446.84;5152810;28;20166;-78
2021/07/24 05:44:48;;;;;;;4.47;2.90;;;;;;;24.94;64.40;100444.59;5149872;28;20321;-80
2021/07/24 05:47:18;;;;;;;5.93;2.90;;;;;;;25.74;62.24;100439.31;5152283;28;20031;-80
2021/07/24 05:49:50;;;;;;;4.97;2.97;;;;;;;26.77;59.47;100429.34;5153607;28;20030;-80
2021/07/24 05:52:21;;;;;;;6.22;3.25;;;;;;;26.70;58.23;100430.16;5152874;28;20027;-78
2021/07/24 05:54:52;;;;;;;6.25;3.55;;;;;;;27.67;56.13;100422.28;5153631;28;20477;-79
2021/07/24 05:57:22;;;;;;;7.68;3.78;;;;;;;26.30;59.54;100429.91;5156224;28;20642;-77
2021/07/24 05:59:52;;;;;;;6.25;3.83;;;;;;;26.70;58.38;100419.44;5149277;28;20058;-79
2021/07/24 06:02:22;;;;;;;8.23;3.27;;;;;;;27.05;57.37;100411.19;5151308;28;20085;-79
2021/07/24 06:04:53;;;;;;;6.40;3.40;;;;;;;25.39;62.69;100417.88;5152392;28;20342;-79
2021/07/24 06:07:23;;;;;;;5.20;3.40;;;;;;;25.16;63.26;100416.59;5149313;28;21706;-79
2021/07/24 06:09:53;;;;;;;4.93;3.67;;;;;;;24.94;64.90;100417.03;5156235;28;20304;-80
2021/07/24 06:12:23;;;;;;;6.60;3.70;;;;;;;25.64;63.20;100411.78;5152058;28;20039;-80
2021/07/24 06:14:54;;;;;;;9.30;3.88;;;;;;;24.98;64.27;100415.75;5147535;28;20282;-79
2021/07/24 06:17:24;;;;;;;7.13;3.90;;;;;;;23.75;67.71;100411.56;5150906;28;20026;-78
2021/07/24 06:19:54;;;;;;;8.30;4.07;;;;;;;24.11;67.76;100404.66;5146964;28;20270;-77
2021/07/24 06:22:25;;;;;;;8.73;4.57;;;;;;;23.15;70.12;100400.28;5144078;28;20376;-78
2021/07/24 06:24:55;;;;;;;10.52;4.63;;;;;;;22.96;71.50;100394.88;5151718;28;20061;-78
2021/07/24 06:27:25;;;;;;;9.27;4.70;;;;;;;22.14;72.17;100396.91;5146490;28;20473;-79
2021/07/24 06:29:55;;;;;;;10.87;4.80;;;;;;;22.30;72.19;100394.63;5144173;28;20274;-79
2021/07/24 06:32:26;;;;;;;7.77;4.33;;;;;;;23.60;69.10;100383.63;5144026;28;20345;-80
2021/07/24 06:34:56;;;;;;;7.87;3.97;;;;;;;24.79;66.64;100365.03;5143910;28;20301;-79
2021/07/24 06:37:26;;;;;;;8.30;4.80;;;;;;;22.04;75.35;100377.38;5143978;28;20284;-79
2021/07/24 06:39:56;;;;;;;10.40;4.72;;;;;;;24.37;68.56;100373.66;5152085;28;20274;-79
2021/07/24 06:42:27;;;;;;;7.10;4.43;;;;;;;24.79;66.04;100354.34;5145241;28;20362;-78
2021/07/24 06:44:57;;;;;;;8.93;3.93;;;;;;;25.96;64.41;100337.03;5143269;28;20286;-78
2021/07/24 06:47:27;;;;;;;9.70;4.20;;;;;;;26.05;64.99;100333.44;5143944;28;20364;-78
2021/07/24 06:49:57;;;;;;;7.73;4.07;;;;;;;26.65;63.75;100321.72;5143364;28;20356;-79
2021/07/24 06:52:28;;;;;;;8.40;4.03;;;;;;;27.04;62.87;100320.94;5147466;28;20493;-78
2021/07/24 06:54:58;;;;;;;6.60;4.03;;;;;;;26.80;62.93;100318.22;5155704;28;20281;-78
2021/07/24 06:57:28;;;;;;;6.80;3.60;;;;;;;27.80;60.64;100309.78;5149853;28;20493;-79
2021/07/24 06:59:58;;;;;;;7.07;3.80;;;;;;;26.93;62.99;100315.91;5146971;28;20058;-79
2021/07/24 07:02:29;;;;;;;7.70;3.60;;;;;;;27.02;64.59;100317.59;5145406;28;20062;-79
2021/07/24 07:04:59;;;;;;;10.17;3.80;;;;;;;27.47;61.47;100321.53;5147137;28;20033;-79
2021/07/24 07:07:29;;;;;;;7.47;3.42;;;;;;;27.08;60.57;100323.13;5144535;28;20026;-79
2021/07/24 07:09:59;;;;;;;7.80;3.53;;;;;;;26.21;62.61;100323.63;5153536;28;20026;-79
2021/07/24 07:12:30;;;;;;;9.27;3.13;;;;;;;26.26;61.16;100326.69;5148630;28;20385;-78
2021/07/24 07:15:01;;;;;;;7.32;3.35;;;;;;;27.04;60.64;100331.69;5150890;28;20481;-78
2021/07/24 07:17:33;;;;;;;4.65;3.10;;;;;;;27.06;60.08;100325.16;5150181;28;20045;-79
2021/07/24 07:20:08;;;;;;;8.60;3.60;;;;;;;26.07;61.91;100323.38;5150066;28;20038;-79
2021/07/24 07:22:38;;;;;;;5.68;3.08;;;;;;;26.64;60.48;100322.69;5148110;28;20030;-78
2021/07/24 07:25:09;;;;;;;6.43;3.40;;;;;;;27.18;59.51;100328.38;5157823;28;20034;-76
2021/07/24 07:27:43;;;;;;;7.95;3.42;;;;;;;26.96;59.74;100307.53;5154603;28;20274;-76
2021/07/24 07:30:14;;;;;;;5.33;2.97;;;;;;;27.29;58.72;100315.47;5155256;28;20108;-79
2021/07/24 07:32:44;;;;;;;8.55;3.10;;;;;;;27.57;57.42;100319.50;5146078;28;20600;-78
2021/07/24 07:35:15;;;;;;;8.53;3.20;;;;;;;27.00;59.03;100304.34;5145063;28;20101;-79
2021/07/24 07:37:47;;;;;;;7.33;3.50;;;;;;;26.89;59.02;100293.94;5149203;28;20277;-78
2021/07/24 07:40:18;;;;;;;10.52;3.80;;;;;;;27.55;57.70;100300.03;5154645;28;20041;-77
2021/07/24 07:42:49;;;;;;;7.47;3.40;;;;;;;28.36;56.61;100292.69;5144790;28;20030;-77
2021/07/24 07:45:19;;;;;;;6.13;3.28;;;;;;;27.85;57.35;100294.00;5144355;28;20027;-79
2021/07/24 07:47:50;;;;;;;9.30;3.53;;;;;;;27.86;57.36;100292.13;5145985;28;20023;-78
2021/07/24 07:50:21;;;;;;;7.30;3.45;;;;;;;27.21;58.50;100287.78;5145283;28;20030;-78
2021/07/24 07:52:51;;;;;;;5.88;3.20;;;;;;;27.71;58.33;100293.81;5146300;28;20081;-78
2021/07/24 07:55:22;;;;;;;5.07;3.10;;;;;;;28.07;57.19;100278.97;5158552;28;20052;-79
2021/07/24 07:57:52;;;;;;;8.57;3.58;;;;;;;27.15;59.24;100285.78;5146418;28;20079;-78
2021/07/24 08:00:23;;;;;;;7.18;3.15;;;;;;;27.88;57.62;100290.97;5160191;23;20019;-79
2021/07/24 08:02:54;;;;;;;5.57;3.28;;;;;;;28.82;56.30;100284.53;5149438;28;20451;-79
2021/07/24 08:05:24;;;;;;;6.50;3.50;;;;;;;29.08;55.77;100291.28;5144995;28;20105;-79
2021/07/24 08:07:54;;;;;;;5.07;3.22;;;;;;;29.88;54.50;100292.50;5144031;28;20034;-80
2021/07/24 08:10:25;;;;;;;6.00;3.13;;;;;;;31.16;52.02;100289.84;5152024;28;20105;-79
2021/07/24 08:12:55;;;;;;;7.40;3.80;;;;;;;29.39;55.37;100293.94;5141763;28;20038;-76
2021/07/24 08:15:25;;;;;;;7.97;3.90;;;;;;;30.45;52.40;100285.44;5144975;28;20046;-76
2021/07/24 08:17:56;;;;;;;6.03;3.40;;;;;;;31.57;50.54;100285.44;5141372;28;20267;-78
2021/07/24 08:20:26;;;;;;;6.87;3.73;;;;;;;30.78;52.07;100278.63;5141682;28;20026;-77
2021/07/24 08:22:56;;;;;;;6.38;3.78;;;;;;;31.53;50.84;100278.75;5142460;28;20305;-77
2021/07/24 08:25:27;;;;;;;5.87;3.23;;;;;;;31.56;50.87;100272.94;5150356;28;20146;-76
2021/07/24 08:28:04;;;;;;;7.00;3.50;;;;;;;32.13;50.84;100280.88;5141591;28;20030;-77
2021/07/24 08:30:35;;;;;;;10.27;3.80;;;;;;;30.63;53.27;100285.91;5140912;28;20504;-77
2021/07/24 08:33:05;;;;;;;7.03;3.60;;;;;;;30.87;52.87;100287.22;5140975;28;20022;-78
2021/07/24 08:35:36;;;;;;;5.60;4.28;;;;;;;32.15;50.48;100282.34;5141319;28;20030;-77
2021/07/24 08:38:06;;;;;;;8.10;3.97;;;;;;;32.27;50.39;100280.81;5143688;28;20034;-77
2021/07/24 08:40:38;;;;;;;7.23;4.20;;;;;;;32.02;49.68;100279.56;5149011;28;20030;-78
2021/07/24 08:43:09;;;;;;;8.07;3.50;;;;;;;34.33;48.56;100272.34;5140903;28;20071;-77
2021/07/24 08:45:39;;;;;;;5.95;3.97;;;;;;;34.58;46.80;100276.00;5145139;28;20103;-78
2021/07/24 08:48:10;;;;;;;9.55;4.35;;;;;;;34.36;47.11;100263.78;5140894;28;20122;-77
2021/07/24 08:50:44;;;;;;;8.68;4.13;;;;;;;34.20;48.96;100264.25;5139276;28;20073;-77
2021/07/24 08:53:20;;;;;;;7.57;4.60;;;;;;;34.42;50.18;100262.91;5140059;28;20109;-77
2021/07/24 08:56:03;;;;;;;7.05;4.65;;;;;;;33.91;47.51;100254.69;5148142;28;20041;-77
2021/07/24 08:58:36;;;;;;;8.90;5.32;;;;;;;33.70;48.25;100252.19;5141181;28;20100;-78
2021/07/24 09:01:16;;;;;;;7.00;5.65;;;;;;;33.56;49.28;100250.53;5139860;28;20057;-77
2021/07/24 09:03:47;;;;;;;9.13;5.13;;;;;;;31.70;52.13;100250.44;5137389;28;20074;-76
2021/07/24 09:06:21;;;;;;;9.23;5.55;;;;;;;31.85;50.47;100245.75;5146711;28;20030;-77
2021/07/24 09:08:52;;;;;;;8.73;5.68;;;;;;;32.09;51.84;100237.19;5149256;28;20472;-76
2021/07/24 09:11:22;;;;;;;10.60;5.75;;;;;;;32.26;50.89;100238.53;5150924;28;20041;-78
2021/07/24 09:13:54;;;;;;;11.82;6.03;;;;;;;31.97;50.22;100236.06;5139938;28;20460;-76
2021/07/24 09:16:25;;;;;;;9.15;6.25;;;;;;;31.96;51.80;100241.66;5144467;28;20033;-76
2021/07/24 09:18:58;;;;;;;8.02;5.70;;;;;;;32.53;50.07;100220.53;5144639;28;20393;-76
2021/07/24 09:21:29;;;;;;;8.48;5.95;;;;;;;33.17;49.05;100230.69;5141177;28;20465;-76
2021/07/24 09:24:21;;;;;;;10.82;5.85;;;;;;;30.90;52.30;100232.88;5144987;28;20037;-75
2021/07/24 09:26:51;;;;;;;9.65;6.15;;;;;;;31.83;51.84;100226.19;5144358;28;20097;-77
2021/07/24 09:29:21;;;;;;;8.43;6.30;;;;;;;31.17;52.94;100218.59;5140269;28;20297;-76
2021/07/24 09:31:52;;;;;;;6.95;5.70;;;;;;;32.76;50.33;100210.19;5139905;28;20029;-77
2021/07/24 09:34:39;;;;;;;9.57;6.85;;;;;;;32.06;51.33;100217.78;5139933;28;20027;-76
2021/07/24 09:37:28;;;;;;;8.57;6.22;;;;;;;32.32;50.65;100221.50;5141568;28;20019;-77
2021/07/24 09:40:33;;;;;;;8.48;6.60;;;;;;;31.51;51.16;100213.25;5154418;28;20112;-77
2021/07/24 09:43:04;;;;;;;10.80;6.78;;;;;;;30.92;53.73;100219.16;5114706;28;20093;-76
2021/07/24 09:45:34;;;;;;;11.63;6.82;;;;;;;30.66;54.68;100202.69;5140099;28;20031;-75
2021/07/24 09:48:16;;;;;;;8.17;6.80;;;;;;;31.92;52.95;100197.97;5140055;28;20440;-78
2021/07/24 09:50:49;;;;;;;12.57;7.30;;;;;;;31.31;53.04;100204.16;5136547;28;20039;-76
2021/07/24 09:53:39;;;;;;;9.70;6.93;;;;;;;31.85;52.71;100201.66;5142644;28;20260;-77
2021/07/24 09:56:17;;;;;;;8.70;7.35;;;;;;;29.53;54.92;100198.84;5146669;28;20484;-77
2021/07/24 09:58:47;;;;;;;12.27;7.50;;;;;;;29.58;56.02;100196.47;5136959;28;20473;-77
2021/07/24 10:01:19;;;;;;;11.43;7.23;;;;;;;30.24;55.21;100190.97;5139090;28;20033;-77
2021/07/24 10:03:51;;;;;;;10.15;7.47;;;;;;;30.26;54.92;100188.91;5138076;28;20548;-77
2021/07/24 10:06:21;;;;;;;10.70;7.20;;;;;;;31.17;53.80;100180.78;5140033;28;20034;-76
2021/07/24 10:08:53;;;;;;;9.93;7.50;;;;;;;31.70;52.29;100176.63;5143646;28;20511;-77
2021/07/24 10:11:24;;;;;;;10.32;7.40;;;;;;;30.89;54.36;100182.56;5145290;28;20544;-77
2021/07/24 10:13:54;;;;;;;10.50;7.72;;;;;;;30.51;55.06;100187.53;5139497;28;20122;-77
2021/07/24 10:16:25;;;;;;;11.57;7.18;;;;;;;30.45;54.98;100181.03;5139757;28;20027;-78
2021/07/24 10:18:56;;;;;;;8.63;7.50;;;;;;;28.88;56.88;100184.25;5140275;28;20031;-77
2021/07/24 10:21:27;;;;;;;10.05;7.80;;;;;;;28.63;57.06;100174.69;5139379;28;20030;-78
2021/07/24 10:23:57;;;;;;;10.90;8.20;;;;;;;29.01;57.62;100168.34;5143681;28;20092;-77
2021/07/24 10:26:33;;;;;;;14.07;8.48;;;;;;;29.19;58.26;100177.78;5148833;28;20440;-77
2021/07/24 10:29:16;;;;;;;14.23;8.27;;;;;;;29.29;57.17;100164.91;5143463;28;20027;-77
2021/07/24 10:32:05;;;;;;;11.65;8.43;;;;;;;29.08;57.25;100161.25;5140100;28;20030;-77
2021/07/24 10:34:50;;;;;;;11.23;8.18;;;;;;;29.19;56.64;100156.25;5143439;28;20038;-76
2021/07/24 10:37:44;;;;;;;11.43;8.83;;;;;;;29.01;57.19;100157.59;5146745;28;20026;-77
2021/07/24 10:40:14;;;;;;;11.10;8.63;;;;;;;29.30;57.37;100144.19;5153371;28;20027;-75
2021/07/24 10:42:50;;;;;;;15.30;8.80;;;;;;;28.58;58.03;100150.19;5146506;28;20045;-76
2021/07/24 10:45:45;;;;;;;14.68;9.15;;;;;;;28.44;56.16;100160.88;5143633;28;20085;-77
2021/07/24 10:48:16;;;;;;;14.48;9.20;;;;;;;28.81;57.48;100154.53;5139856;28;20113;-76
2021/07/24 10:50:58;;;;;;;12.18;8.90;;;;;;;28.51;57.54;100149.19;5139720;28;20481;-78
2021/07/24 10:54:00;;;;;;;16.13;9.60;;;;;;;28.82;57.76;100141.91;5140178;28;20035;-78
2021/07/24 10:56:41;;;;;;;11.30;8.60;;;;;;;28.72;58.12;100146.72;5139178;28;20049;-77
2021/07/24 10:59:14;;;;;;;14.60;9.38;;;;;;;29.09;58.17;100144.06;5139636;28;20058;-75
2021/07/24 11:01:47;;;;;;;11.30;8.70;;;;;;;29.20;57.57;100143.63;5150272;28;20026;-78
2021/07/24 11:04:36;;;;;;;13.05;8.80;;;;;;;29.20;56.29;100135.56;5142276;28;20551;-77
2021/07/24 11:07:12;;;;;;;17.35;9.27;;;;;;;28.51;57.44;100122.31;5145407;28;20097;-77
2021/07/24 11:09:43;;;;;;;14.50;9.27;;;;;;;29.06;57.10;100131.78;5149731;28;20058;-77
2021/07/24 11:12:15;;;;;;;14.73;8.90;;;;;;;28.85;55.86;100130.78;5146644;28;20370;-77
2021/07/24 11:14:49;;;;;;;15.82;10.02;;;;;;;28.80;56.92;100127.78;5140178;28;20462;-78
2021/07/24 11:17:19;;;;;;;16.40;9.13;;;;;;;29.02;57.49;100132.34;5140933;28;20038;-77
2021/07/24 11:19:50;;;;;;;14.15;9.75;;;;;;;28.89;56.81;100116.00;5138271;28;20508;-77
2021/07/24 11:22:21;;;;;;;12.63;8.67;;;;;;;29.09;56.03;100127.91;5140162;28;20026;-78
2021/07/24 11:24:52;;;;;;;12.38;8.50;;;;;;;29.18;56.51;100124.09;5149794;28;20409;-76
2021/07/24 11:27:33;;;;;;;13.03;8.70;;;;;;;29.05;56.90;100113.16;5148266;28;20034;-77
2021/07/24 11:30:03;;;;;;;11.50;8.98;;;;;;;28.78;56.00;100113.69;5139559;28;20278;-79
2021/07/24 11:32:44;;;;;;;11.70;8.93;;;;;;;29.20;55.65;100114.00;5140106;28;20523;-76
2021/07/24 11:35:15;;;;;;;15.30;9.23;;;;;;;29.50;55.96;100104.94;5131562;28;20042;-76
2021/07/24 11:37:47;;;;;;;12.90;9.23;;;;;;;29.29;56.57;100102.97;5140070;28;20034;-75
2021/07/24 11:40:24;;;;;;;15.23;8.80;;;;;;;29.32;55.90;100107.97;5149284;28;20030;-79
2021/07/24 11:42:58;;;;;;;16.08;9.18;;;;;;;29.13;56.02;100110.38;5137050;28;20388;-79
2021/07/24 11:45:33;;;;;;;12.73;8.80;;;;;;;29.35;55.08;100102.22;5140943;28;20089;-77
2021/07/24 11:48:15;;;;;;;13.52;9.25;;;;;;;29.12;56.02;100096.06;5136725;28;20027;-76